sensor_id;sensor_type;location;lat;lon;timestamp;P1;durP1;ratioP1;P2;durP2;ratioP2
13014;SDS011;6573;57.696;11.950;2023-03-04T00:02:04;17.70;;;5.27;;
13014;SDS011;6573;57.696;11.950;2023-03-04T00:04:32;14.30;;;4.73;;
13014;SDS011;6573;57.696;11.950;2023-03-04T00:07:01;15.53;;;3.90;;
13014;SDS011;6573;57.696;11.950;2023-03-04T00:09:29;11.70;;;3.17;;
13014;SDS011;6573;57.696;11.950;2023-03-04T00:11:58;11.57;;;3.00;;
13014;SDS011;6573;57.696;11.950;2023-03-04T00:14:28;12.90;;;2.90;;
13014;SDS011;6573;57.696;11.950;2023-03-04T00:16:57;13.37;;;3.20;;
13014;SDS011;6573;57.696;11.950;2023-03-04T00:19:29;13.57;;;3.30;;
13014;SDS011;6573;57.696;11.950;2023-03-04T00:21:58;10.83;;;2.60;;
13014;SDS011;6573;57.696;11.950;2023-03-04T00:24:26;8.60;;;2.17;;
13014;SDS011;6573;57.696;11.950;2023-03-04T00:26:57;13.37;;;2.60;;
13014;SDS011;6573;57.696;11.950;2023-03-04T00:29:26;11.30;;;2.20;;
13014;SDS011;6573;57.696;11.950;2023-03-04T00:31:54;7.43;;;2.33;;
13014;SDS011;6573;57.696;11.950;2023-03-04T00:34:25;9.77;;;2.20;;
13014;SDS011;6573;57.696;11.950;2023-03-04T00:37:02;9.53;;;2.37;;
13014;SDS011;6573;57.696;11.950;2023-03-04T00:39:30;8.27;;;2.13;;
13014;SDS011;6573;57.696;11.950;2023-03-04T00:41:58;9.30;;;2.33;;
13014;SDS011;6573;57.696;11.950;2023-03-04T00:44:27;9.97;;;2.10;;
13014;SDS011;6573;57.696;11.950;2023-03-04T00:46:55;14.03;;;3.17;;
13014;SDS011;6573;57.696;11.950;2023-03-04T00:49:24;11.57;;;2.43;;
13014;SDS011;6573;57.696;11.950;2023-03-04T00:51:52;7.40;;;2.20;;
13014;SDS011;6573;57.696;11.950;2023-03-04T00:54:22;11.47;;;2.70;;
13014;SDS011;6573;57.696;11.950;2023-03-04T00:56:50;12.53;;;2.20;;
13014;SDS011;6573;57.696;11.950;2023-03-04T00:59:19;6.50;;;1.90;;
13014;SDS011;6573;57.696;11.950;2023-03-04T01:01:47;9.60;;;2.37;;
13014;SDS011;6573;57.696;11.950;2023-03-04T01:04:16;9.63;;;2.80;;
13014;SDS011;6573;57.696;11.950;2023-03-04T01:06:45;8.20;;;2.40;;
13014;SDS011;6573;57.696;11.950;2023-03-04T01:09:13;7.70;;;1.87;;
13014;SDS011;6573;57.696;11.950;2023-03-04T01:11:42;11.43;;;2.47;;
13014;SDS011;6573;57.696;11.950;2023-03-04T01:14:11;7.63;;;2.10;;
13014;SDS011;6573;57.696;11.950;2023-03-04T01:16:39;9.93;;;2.90;;
13014;SDS011;6573;57.696;11.950;2023-03-04T01:19:08;12.97;;;2.90;;
13014;SDS011;6573;57.696;11.950;2023-03-04T01:21:37;11.00;;;3.27;;
13014;SDS011;6573;57.696;11.950;2023-03-04T01:24:06;9.87;;;3.00;;
13014;SDS011;6573;57.696;11.950;2023-03-04T01:26:35;6.80;;;3.00;;
13014;SDS011;6573;57.696;11.950;2023-03-04T01:29:04;7.07;;;2.67;;
13014;SDS011;6573;57.696;11.950;2023-03-04T01:31:33;7.10;;;2.20;;
13014;SDS011;6573;57.696;11.950;2023-03-04T01:34:01;8.77;;;2.70;;
13014;SDS011;6573;57.696;11.950;2023-03-04T01:36:30;5.37;;;2.20;;
13014;SDS011;6573;57.696;11.950;2023-03-04T01:38:58;7.30;;;2.00;;
13014;SDS011;6573;57.696;11.950;2023-03-04T01:41:27;5.03;;;1.90;;
13014;SDS011;6573;57.696;11.950;2023-03-04T01:43:55;8.10;;;2.10;;
13014;SDS011;6573;57.696;11.950;2023-03-04T01:46:29;4.43;;;1.70;;
13014;SDS011;6573;57.696;11.950;2023-03-04T01:48:58;4.97;;;1.80;;
13014;SDS011;6573;57.696;11.950;2023-03-04T01:51:28;4.17;;;1.40;;
13014;SDS011;6573;57.696;11.950;2023-03-04T01:53:56;3.30;;;1.30;;
13014;SDS011;6573;57.696;11.950;2023-03-04T01:56:27;2.87;;;1.07;;
13014;SDS011;6573;57.696;11.950;2023-03-04T01:59:06;3.97;;;1.23;;
13014;SDS011;6573;57.696;11.950;2023-03-04T02:01:38;3.87;;;1.73;;
13014;SDS011;6573;57.696;11.950;2023-03-04T02:04:08;3.87;;;1.40;;
13014;SDS011;6573;57.696;11.950;2023-03-04T02:06:38;3.73;;;1.30;;
13014;SDS011;6573;57.696;11.950;2023-03-04T02:09:08;3.53;;;1.37;;
13014;SDS011;6573;57.696;11.950;2023-03-04T02:11:37;2.27;;;1.10;;
13014;SDS011;6573;57.696;11.950;2023-03-04T02:14:06;2.10;;;1.00;;
13014;SDS011;6573;57.696;11.950;2023-03-04T02:16:38;1.90;;;1.20;;
13014;SDS011;6573;57.696;11.950;2023-03-04T02:19:09;2.90;;;1.10;;
13014;SDS011;6573;57.696;11.950;2023-03-04T02:21:42;3.10;;;1.30;;
13014;SDS011;6573;57.696;11.950;2023-03-04T02:24:12;3.50;;;1.23;;
13014;SDS011;6573;57.696;11.950;2023-03-04T02:26:47;2.50;;;1.20;;
13014;SDS011;6573;57.696;11.950;2023-03-04T02:29:15;3.40;;;1.23;;
13014;SDS011;6573;57.696;11.950;2023-03-04T02:31:45;2.43;;;0.83;;
13014;SDS011;6573;57.696;11.950;2023-03-04T02:34:16;3.00;;;1.00;;
13014;SDS011;6573;57.696;11.950;2023-03-04T02:36:47;2.30;;;0.90;;
13014;SDS011;6573;57.696;11.950;2023-03-04T02:39:21;1.87;;;0.80;;
13014;SDS011;6573;57.696;11.950;2023-03-04T02:41:56;3.03;;;1.00;;
13014;SDS011;6573;57.696;11.950;2023-03-04T02:44:27;3.00;;;0.70;;
13014;SDS011;6573;57.696;11.950;2023-03-04T02:46:57;3.47;;;0.90;;
13014;SDS011;6573;57.696;11.950;2023-03-04T02:49:27;3.33;;;0.80;;
13014;SDS011;6573;57.696;11.950;2023-03-04T02:51:58;3.87;;;0.70;;
13014;SDS011;6573;57.696;11.950;2023-03-04T02:54:28;6.77;;;1.30;;
13014;SDS011;6573;57.696;11.950;2023-03-04T02:56:59;2.43;;;0.90;;
13014;SDS011;6573;57.696;11.950;2023-03-04T02:59:28;2.77;;;0.90;;
13014;SDS011;6573;57.696;11.950;2023-03-04T03:01:57;5.80;;;0.80;;
13014;SDS011;6573;57.696;11.950;2023-03-04T03:04:26;2.43;;;0.70;;
13014;SDS011;6573;57.696;11.950;2023-03-04T03:06:55;2.43;;;0.80;;
13014;SDS011;6573;57.696;11.950;2023-03-04T03:09:24;1.47;;;0.87;;
13014;SDS011;6573;57.696;11.950;2023-03-04T03:11:52;2.47;;;0.70;;
13014;SDS011;6573;57.696;11.950;2023-03-04T03:14:22;1.00;;;0.60;;
13014;SDS011;6573;57.696;11.950;2023-03-04T03:16:50;2.50;;;0.70;;
13014;SDS011;6573;57.696;11.950;2023-03-04T03:19:19;3.13;;;0.70;;
13014;SDS011;6573;57.696;11.950;2023-03-04T03:21:48;2.90;;;0.60;;
13014;SDS011;6573;57.696;11.950;2023-03-04T03:24:16;1.53;;;0.60;;
13014;SDS011;6573;57.696;11.950;2023-03-04T03:26:45;2.60;;;0.83;;
13014;SDS011;6573;57.696;11.950;2023-03-04T03:29:14;0.97;;;0.50;;
13014;SDS011;6573;57.696;11.950;2023-03-04T03:31:44;1.33;;;0.50;;
13014;SDS011;6573;57.696;11.950;2023-03-04T03:34:13;3.80;;;0.70;;
13014;SDS011;6573;57.696;11.950;2023-03-04T03:36:41;1.70;;;0.67;;
13014;SDS011;6573;57.696;11.950;2023-03-04T03:39:09;2.30;;;0.60;;
13014;SDS011;6573;57.696;11.950;2023-03-04T03:41:38;1.20;;;0.50;;
13014;SDS011;6573;57.696;11.950;2023-03-04T03:44:06;2.53;;;0.60;;
13014;SDS011;6573;57.696;11.950;2023-03-04T03:46:34;5.33;;;0.50;;
13014;SDS011;6573;57.696;11.950;2023-03-04T03:49:04;2.63;;;0.50;;
13014;SDS011;6573;57.696;11.950;2023-03-04T03:51:33;2.83;;;0.60;;
13014;SDS011;6573;57.696;11.950;2023-03-04T03:54:01;2.30;;;0.67;;
13014;SDS011;6573;57.696;11.950;2023-03-04T03:56:30;2.47;;;0.67;;
13014;SDS011;6573;57.696;11.950;2023-03-04T03:58:58;1.57;;;0.67;;
13014;SDS011;6573;57.696;11.950;2023-03-04T04:01:27;2.23;;;0.60;;
13014;SDS011;6573;57.696;11.950;2023-03-04T04:03:55;2.40;;;0.83;;
13014;SDS011;6573;57.696;11.950;2023-03-04T04:06:25;2.47;;;0.63;;
13014;SDS011;6573;57.696;11.950;2023-03-04T04:08:54;5.70;;;0.70;;
13014;SDS011;6573;57.696;11.950;2023-03-04T04:11:22;2.47;;;0.70;;
13014;SDS011;6573;57.696;11.950;2023-03-04T04:13:52;4.57;;;0.60;;
13014;SDS011;6573;57.696;11.950;2023-03-04T04:16:21;5.33;;;1.33;;
13014;SDS011;6573;57.696;11.950;2023-03-04T04:18:49;8.93;;;0.77;;
13014;SDS011;6573;57.696;11.950;2023-03-04T04:21:18;4.00;;;0.90;;
13014;SDS011;6573;57.696;11.950;2023-03-04T04:23:48;2.63;;;0.60;;
13014;SDS011;6573;57.696;11.950;2023-03-04T04:26:16;2.60;;;0.60;;
13014;SDS011;6573;57.696;11.950;2023-03-04T04:28:44;2.30;;;0.60;;
13014;SDS011;6573;57.696;11.950;2023-03-04T04:31:13;6.07;;;0.90;;
13014;SDS011;6573;57.696;11.950;2023-03-04T04:33:41;5.73;;;0.70;;
13014;SDS011;6573;57.696;11.950;2023-03-04T04:36:11;5.43;;;0.60;;
13014;SDS011;6573;57.696;11.950;2023-03-04T04:38:42;2.40;;;0.80;;
13014;SDS011;6573;57.696;11.950;2023-03-04T04:41:16;3.97;;;0.73;;
13014;SDS011;6573;57.696;11.950;2023-03-04T04:43:46;2.87;;;0.70;;
13014;SDS011;6573;57.696;11.950;2023-03-04T04:46:15;1.87;;;0.60;;
13014;SDS011;6573;57.696;11.950;2023-03-04T04:48:44;1.83;;;0.50;;
13014;SDS011;6573;57.696;11.950;2023-03-04T04:51:13;3.17;;;0.60;;
13014;SDS011;6573;57.696;11.950;2023-03-04T04:53:41;2.93;;;0.67;;
13014;SDS011;6573;57.696;11.950;2023-03-04T04:56:10;4.17;;;0.70;;
13014;SDS011;6573;57.696;11.950;2023-03-04T04:58:42;4.50;;;0.70;;
13014;SDS011;6573;57.696;11.950;2023-03-04T05:01:12;3.30;;;0.70;;
13014;SDS011;6573;57.696;11.950;2023-03-04T05:03:42;4.10;;;0.70;;
13014;SDS011;6573;57.696;11.950;2023-03-04T05:06:11;7.70;;;0.70;;
13014;SDS011;6573;57.696;11.950;2023-03-04T05:08:40;3.90;;;0.77;;
13014;SDS011;6573;57.696;11.950;2023-03-04T05:11:09;8.27;;;1.00;;
13014;SDS011;6573;57.696;11.950;2023-03-04T05:13:37;3.80;;;0.70;;
13014;SDS011;6573;57.696;11.950;2023-03-04T05:16:07;9.67;;;0.80;;
13014;SDS011;6573;57.696;11.950;2023-03-04T05:18:36;1.60;;;0.63;;
13014;SDS011;6573;57.696;11.950;2023-03-04T05:21:05;3.27;;;0.90;;
13014;SDS011;6573;57.696;11.950;2023-03-04T05:23:34;5.87;;;1.10;;
13014;SDS011;6573;57.696;11.950;2023-03-04T05:26:05;5.20;;;0.80;;
13014;SDS011;6573;57.696;11.950;2023-03-04T05:28:35;5.77;;;0.80;;
13014;SDS011;6573;57.696;11.950;2023-03-04T05:31:06;4.83;;;1.00;;
13014;SDS011;6573;57.696;11.950;2023-03-04T05:33:38;4.70;;;0.73;;
13014;SDS011;6573;57.696;11.950;2023-03-04T05:36:07;4.73;;;0.80;;
13014;SDS011;6573;57.696;11.950;2023-03-04T05:38:36;1.97;;;0.80;;
13014;SDS011;6573;57.696;11.950;2023-03-04T05:41:05;4.20;;;0.70;;
13014;SDS011;6573;57.696;11.950;2023-03-04T05:43:35;5.60;;;0.80;;
13014;SDS011;6573;57.696;11.950;2023-03-04T05:46:09;9.87;;;1.23;;
13014;SDS011;6573;57.696;11.950;2023-03-04T05:48:41;3.73;;;0.87;;
13014;SDS011;6573;57.696;11.950;2023-03-04T05:51:10;7.47;;;0.80;;
13014;SDS011;6573;57.696;11.950;2023-03-04T05:53:39;3.73;;;0.97;;
13014;SDS011;6573;57.696;11.950;2023-03-04T05:56:08;6.20;;;0.90;;
13014;SDS011;6573;57.696;11.950;2023-03-04T05:58:37;2.10;;;0.70;;
13014;SDS011;6573;57.696;11.950;2023-03-04T06:01:05;3.57;;;0.77;;
13014;SDS011;6573;57.696;11.950;2023-03-04T06:03:36;4.53;;;0.80;;
13014;SDS011;6573;57.696;11.950;2023-03-04T06:06:04;4.47;;;0.93;;
13014;SDS011;6573;57.696;11.950;2023-03-04T06:08:33;6.97;;;1.20;;
13014;SDS011;6573;57.696;11.950;2023-03-04T06:11:01;2.50;;;0.80;;
13014;SDS011;6573;57.696;11.950;2023-03-04T06:13:31;6.17;;;0.80;;
13014;SDS011;6573;57.696;11.950;2023-03-04T06:16:00;3.97;;;0.77;;
13014;SDS011;6573;57.696;11.950;2023-03-04T06:18:29;4.27;;;0.90;;
13014;SDS011;6573;57.696;11.950;2023-03-04T06:20:59;5.80;;;0.93;;
13014;SDS011;6573;57.696;11.950;2023-03-04T06:23:29;4.93;;;0.83;;
13014;SDS011;6573;57.696;11.950;2023-03-04T06:25:58;1.63;;;0.60;;
13014;SDS011;6573;57.696;11.950;2023-03-04T06:28:27;6.73;;;1.00;;
13014;SDS011;6573;57.696;11.950;2023-03-04T06:30:56;6.53;;;1.43;;
13014;SDS011;6573;57.696;11.950;2023-03-04T06:33:25;3.37;;;1.00;;
13014;SDS011;6573;57.696;11.950;2023-03-04T06:35:53;2.93;;;0.90;;
13014;SDS011;6573;57.696;11.950;2023-03-04T06:38:24;6.53;;;0.87;;
13014;SDS011;6573;57.696;11.950;2023-03-04T06:40:53;3.33;;;0.67;;
13014;SDS011;6573;57.696;11.950;2023-03-04T06:43:23;2.53;;;0.70;;
13014;SDS011;6573;57.696;11.950;2023-03-04T06:45:51;4.17;;;1.00;;
13014;SDS011;6573;57.696;11.950;2023-03-04T06:48:20;4.93;;;0.80;;
13014;SDS011;6573;57.696;11.950;2023-03-04T06:50:48;4.47;;;0.80;;
13014;SDS011;6573;57.696;11.950;2023-03-04T06:53:17;3.13;;;0.70;;
13014;SDS011;6573;57.696;11.950;2023-03-04T06:55:47;2.57;;;0.70;;
13014;SDS011;6573;57.696;11.950;2023-03-04T06:58:18;4.07;;;0.80;;
13014;SDS011;6573;57.696;11.950;2023-03-04T07:00:52;2.27;;;0.80;;
13014;SDS011;6573;57.696;11.950;2023-03-04T07:03:20;2.00;;;0.77;;
13014;SDS011;6573;57.696;11.950;2023-03-04T07:05:52;3.67;;;0.70;;
13014;SDS011;6573;57.696;11.950;2023-03-04T07:08:20;4.97;;;0.73;;
13014;SDS011;6573;57.696;11.950;2023-03-04T07:10:50;12.60;;;1.40;;
13014;SDS011;6573;57.696;11.950;2023-03-04T07:13:18;13.13;;;1.23;;
13014;SDS011;6573;57.696;11.950;2023-03-04T07:15:47;9.03;;;1.20;;
13014;SDS011;6573;57.696;11.950;2023-03-04T07:18:15;1.70;;;0.60;;
13014;SDS011;6573;57.696;11.950;2023-03-04T07:20:43;2.13;;;0.80;;
13014;SDS011;6573;57.696;11.950;2023-03-04T07:23:12;5.07;;;1.00;;
13014;SDS011;6573;57.696;11.950;2023-03-04T07:25:40;3.70;;;0.70;;
13014;SDS011;6573;57.696;11.950;2023-03-04T07:28:10;7.13;;;0.80;;
13014;SDS011;6573;57.696;11.950;2023-03-04T07:30:41;5.30;;;0.93;;
13014;SDS011;6573;57.696;11.950;2023-03-04T07:33:10;5.70;;;1.00;;
13014;SDS011;6573;57.696;11.950;2023-03-04T07:35:39;6.33;;;0.90;;
13014;SDS011;6573;57.696;11.950;2023-03-04T07:38:08;4.30;;;1.10;;
13014;SDS011;6573;57.696;11.950;2023-03-04T07:40:37;4.33;;;1.00;;
13014;SDS011;6573;57.696;11.950;2023-03-04T07:43:05;19.80;;;1.20;;
13014;SDS011;6573;57.696;11.950;2023-03-04T07:45:35;8.93;;;1.07;;
13014;SDS011;6573;57.696;11.950;2023-03-04T07:48:04;11.27;;;1.00;;
13014;SDS011;6573;57.696;11.950;2023-03-04T07:50:32;8.23;;;1.17;;
13014;SDS011;6573;57.696;11.950;2023-03-04T07:53:01;13.00;;;1.10;;
13014;SDS011;6573;57.696;11.950;2023-03-04T07:55:29;13.40;;;1.23;;
13014;SDS011;6573;57.696;11.950;2023-03-04T07:57:58;5.03;;;0.70;;
13014;SDS011;6573;57.696;11.950;2023-03-04T08:00:26;17.60;;;1.17;;
13014;SDS011;6573;57.696;11.950;2023-03-04T08:02:57;17.50;;;1.20;;
13014;SDS011;6573;57.696;11.950;2023-03-04T08:05:25;10.57;;;0.97;;
13014;SDS011;6573;57.696;11.950;2023-03-04T08:07:57;9.40;;;1.00;;
13014;SDS011;6573;57.696;11.950;2023-03-04T08:10:26;22.63;;;1.80;;
13014;SDS011;6573;57.696;11.950;2023-03-04T08:12:54;28.03;;;2.27;;
13014;SDS011;6573;57.696;11.950;2023-03-04T08:15:26;17.20;;;1.80;;
13014;SDS011;6573;57.696;11.950;2023-03-04T08:17:59;4.67;;;0.70;;
13014;SDS011;6573;57.696;11.950;2023-03-04T08:20:28;5.93;;;0.80;;
13014;SDS011;6573;57.696;11.950;2023-03-04T08:22:57;9.40;;;1.13;;
13014;SDS011;6573;57.696;11.950;2023-03-04T08:25:25;8.97;;;1.20;;
13014;SDS011;6573;57.696;11.950;2023-03-04T08:27:54;5.03;;;1.00;;
13014;SDS011;6573;57.696;11.950;2023-03-04T08:30:22;12.10;;;1.30;;
13014;SDS011;6573;57.696;11.950;2023-03-04T08:32:53;10.40;;;0.93;;
13014;SDS011;6573;57.696;11.950;2023-03-04T08:35:23;8.20;;;1.30;;
13014;SDS011;6573;57.696;11.950;2023-03-04T08:37:52;34.23;;;2.80;;
13014;SDS011;6573;57.696;11.950;2023-03-04T08:40:21;17.80;;;1.87;;
13014;SDS011;6573;57.696;11.950;2023-03-04T08:42:50;8.27;;;0.97;;
13014;SDS011;6573;57.696;11.950;2023-03-04T08:45:19;10.30;;;1.30;;
13014;SDS011;6573;57.696;11.950;2023-03-04T08:47:50;6.50;;;1.10;;
13014;SDS011;6573;57.696;11.950;2023-03-04T08:50:18;4.57;;;1.60;;
13014;SDS011;6573;57.696;11.950;2023-03-04T08:52:49;4.93;;;0.87;;
13014;SDS011;6573;57.696;11.950;2023-03-04T08:55:17;4.00;;;0.93;;
13014;SDS011;6573;57.696;11.950;2023-03-04T08:57:49;4.40;;;0.80;;
13014;SDS011;6573;57.696;11.950;2023-03-04T09:00:17;13.97;;;1.33;;
13014;SDS011;6573;57.696;11.950;2023-03-04T09:02:46;5.20;;;1.10;;
13014;SDS011;6573;57.696;11.950;2023-03-04T09:05:15;8.73;;;0.80;;
13014;SDS011;6573;57.696;11.950;2023-03-04T09:07:43;4.13;;;0.90;;
13014;SDS011;6573;57.696;11.950;2023-03-04T09:10:16;6.20;;;0.77;;
13014;SDS011;6573;57.696;11.950;2023-03-04T09:12:45;5.50;;;0.70;;
13014;SDS011;6573;57.696;11.950;2023-03-04T09:15:14;9.53;;;1.20;;
13014;SDS011;6573;57.696;11.950;2023-03-04T09:17:42;7.23;;;1.00;;
13014;SDS011;6573;57.696;11.950;2023-03-04T09:20:11;7.77;;;1.07;;
13014;SDS011;6573;57.696;11.950;2023-03-04T09:22:39;7.20;;;0.83;;
13014;SDS011;6573;57.696;11.950;2023-03-04T09:25:09;4.33;;;0.87;;
13014;SDS011;6573;57.696;11.950;2023-03-04T09:27:42;5.23;;;1.00;;
13014;SDS011;6573;57.696;11.950;2023-03-04T09:30:11;4.90;;;0.93;;
13014;SDS011;6573;57.696;11.950;2023-03-04T09:32:39;3.23;;;0.73;;
13014;SDS011;6573;57.696;11.950;2023-03-04T09:35:08;6.13;;;0.87;;
13014;SDS011;6573;57.696;11.950;2023-03-04T09:37:37;6.30;;;1.30;;
13014;SDS011;6573;57.696;11.950;2023-03-04T09:40:07;11.97;;;1.37;;
13014;SDS011;6573;57.696;11.950;2023-03-04T09:42:45;6.40;;;0.90;;
13014;SDS011;6573;57.696;11.950;2023-03-04T09:45:17;8.63;;;1.60;;
13014;SDS011;6573;57.696;11.950;2023-03-04T09:47:48;4.27;;;0.83;;
13014;SDS011;6573;57.696;11.950;2023-03-04T09:50:19;4.30;;;0.90;;
13014;SDS011;6573;57.696;11.950;2023-03-04T09:52:53;3.07;;;0.70;;
13014;SDS011;6573;57.696;11.950;2023-03-04T09:55:33;4.97;;;1.93;;
13014;SDS011;6573;57.696;11.950;2023-03-04T09:58:06;7.37;;;1.17;;
13014;SDS011;6573;57.696;11.950;2023-03-04T10:00:50;5.87;;;1.27;;
13014;SDS011;6573;57.696;11.950;2023-03-04T10:03:23;2.17;;;0.70;;
13014;SDS011;6573;57.696;11.950;2023-03-04T10:05:55;3.77;;;0.70;;
13014;SDS011;6573;57.696;11.950;2023-03-04T10:08:33;2.40;;;0.77;;
13014;SDS011;6573;57.696;11.950;2023-03-04T10:11:10;11.60;;;1.53;;
13014;SDS011;6573;57.696;11.950;2023-03-04T10:13:50;7.20;;;1.10;;
13014;SDS011;6573;57.696;11.950;2023-03-04T10:16:24;4.40;;;0.70;;
13014;SDS011;6573;57.696;11.950;2023-03-04T10:18:57;22.93;;;2.33;;
13014;SDS011;6573;57.696;11.950;2023-03-04T10:21:31;3.77;;;0.70;;
13014;SDS011;6573;57.696;11.950;2023-03-04T10:24:06;10.10;;;1.33;;
13014;SDS011;6573;57.696;11.950;2023-03-04T10:26:39;2.17;;;0.80;;
13014;SDS011;6573;57.696;11.950;2023-03-04T10:29:13;5.33;;;0.70;;
13014;SDS011;6573;57.696;11.950;2023-03-04T10:31:43;6.30;;;0.90;;
13014;SDS011;6573;57.696;11.950;2023-03-04T10:34:13;3.67;;;1.00;;
13014;SDS011;6573;57.696;11.950;2023-03-04T10:36:48;4.30;;;0.90;;
13014;SDS011;6573;57.696;11.950;2023-03-04T10:39:24;5.63;;;1.00;;
13014;SDS011;6573;57.696;11.950;2023-03-04T10:41:57;8.47;;;1.50;;
13014;SDS011;6573;57.696;11.950;2023-03-04T10:44:32;14.07;;;1.10;;
13014;SDS011;6573;57.696;11.950;2023-03-04T10:47:04;7.30;;;1.00;;
13014;SDS011;6573;57.696;11.950;2023-03-04T10:49:48;3.03;;;0.80;;
13014;SDS011;6573;57.696;11.950;2023-03-04T10:52:19;4.13;;;0.70;;
13014;SDS011;6573;57.696;11.950;2023-03-04T10:54:54;10.10;;;0.90;;
13014;SDS011;6573;57.696;11.950;2023-03-04T10:57:24;3.47;;;0.80;;
13014;SDS011;6573;57.696;11.950;2023-03-04T11:00:07;6.27;;;1.70;;
13014;SDS011;6573;57.696;11.950;2023-03-04T11:02:53;20.03;;;2.57;;
13014;SDS011;6573;57.696;11.950;2023-03-04T11:05:49;4.00;;;0.90;;
13014;SDS011;6573;57.696;11.950;2023-03-04T11:08:19;9.50;;;1.00;;
13014;SDS011;6573;57.696;11.950;2023-03-04T11:10:49;5.63;;;1.00;;
13014;SDS011;6573;57.696;11.950;2023-03-04T11:13:19;24.43;;;2.83;;
13014;SDS011;6573;57.696;11.950;2023-03-04T11:15:52;16.57;;;1.47;;
13014;SDS011;6573;57.696;11.950;2023-03-04T11:18:30;2.13;;;0.70;;
13014;SDS011;6573;57.696;11.950;2023-03-04T11:21:07;62.90;;;3.73;;
13014;SDS011;6573;57.696;11.950;2023-03-04T11:23:42;24.07;;;1.87;;
13014;SDS011;6573;57.696;11.950;2023-03-04T11:26:23;6.67;;;1.20;;
13014;SDS011;6573;57.696;11.950;2023-03-04T11:28:58;4.50;;;1.10;;
13014;SDS011;6573;57.696;11.950;2023-03-04T11:31:31;2.40;;;0.93;;
13014;SDS011;6573;57.696;11.950;2023-03-04T11:34:06;3.23;;;1.00;;
13014;SDS011;6573;57.696;11.950;2023-03-04T11:36:46;14.60;;;1.63;;
13014;SDS011;6573;57.696;11.950;2023-03-04T11:39:26;4.50;;;0.80;;
13014;SDS011;6573;57.696;11.950;2023-03-04T11:42:00;14.00;;;1.43;;
13014;SDS011;6573;57.696;11.950;2023-03-04T11:44:32;1.60;;;0.87;;
13014;SDS011;6573;57.696;11.950;2023-03-04T11:47:13;1.30;;;0.63;;
13014;SDS011;6573;57.696;11.950;2023-03-04T11:50:03;3.03;;;0.93;;
13014;SDS011;6573;57.696;11.950;2023-03-04T11:52:54;5.37;;;1.10;;
13014;SDS011;6573;57.696;11.950;2023-03-04T11:55:44;10.50;;;1.53;;
13014;SDS011;6573;57.696;11.950;2023-03-04T12:01:31;5.70;;;1.10;;
13014;SDS011;6573;57.696;11.950;2023-03-04T12:04:18;3.00;;;1.27;;
13014;SDS011;6573;57.696;11.950;2023-03-04T12:07:15;5.20;;;1.13;;
13014;SDS011;6573;57.696;11.950;2023-03-04T12:10:08;1.43;;;0.77;;
13014;SDS011;6573;57.696;11.950;2023-03-04T12:12:53;6.43;;;1.00;;
13014;SDS011;6573;57.696;11.950;2023-03-04T12:15:41;2.13;;;0.70;;
13014;SDS011;6573;57.696;11.950;2023-03-04T12:18:19;7.93;;;1.40;;
13014;SDS011;6573;57.696;11.950;2023-03-04T12:21:06;7.30;;;1.00;;
13014;SDS011;6573;57.696;11.950;2023-03-04T12:23:52;5.00;;;0.80;;
13014;SDS011;6573;57.696;11.950;2023-03-04T12:26:42;11.20;;;1.07;;
13014;SDS011;6573;57.696;11.950;2023-03-04T12:29:17;6.60;;;0.90;;
13014;SDS011;6573;57.696;11.950;2023-03-04T12:32:00;1.73;;;0.80;;
13014;SDS011;6573;57.696;11.950;2023-03-04T12:37:46;10.30;;;0.97;;
13014;SDS011;6573;57.696;11.950;2023-03-04T12:40:26;10.30;;;0.87;;
13014;SDS011;6573;57.696;11.950;2023-03-04T12:43:07;5.23;;;0.80;;
13014;SDS011;6573;57.696;11.950;2023-03-04T12:45:52;3.20;;;0.90;;
13014;SDS011;6573;57.696;11.950;2023-03-04T12:48:31;6.17;;;0.70;;
13014;SDS011;6573;57.696;11.950;2023-03-04T12:51:09;5.73;;;1.00;;
13014;SDS011;6573;57.696;11.950;2023-03-04T12:53:50;4.40;;;0.80;;
13014;SDS011;6573;57.696;11.950;2023-03-04T12:56:27;2.23;;;1.17;;
13014;SDS011;6573;57.696;11.950;2023-03-04T12:59:02;10.23;;;1.03;;
13014;SDS011;6573;57.696;11.950;2023-03-04T13:01:32;16.53;;;1.47;;
13014;SDS011;6573;57.696;11.950;2023-03-04T13:04:08;7.07;;;0.83;;
13014;SDS011;6573;57.696;11.950;2023-03-04T13:06:44;8.50;;;3.40;;
13014;SDS011;6573;57.696;11.950;2023-03-04T13:09:18;5.20;;;1.20;;
13014;SDS011;6573;57.696;11.950;2023-03-04T13:11:54;3.07;;;1.07;;
13014;SDS011;6573;57.696;11.950;2023-03-04T13:14:33;12.07;;;1.60;;
13014;SDS011;6573;57.696;11.950;2023-03-04T13:20:17;55.43;;;4.43;;
13014;SDS011;6573;57.696;11.950;2023-03-04T13:22:52;9.33;;;1.30;;
13014;SDS011;6573;57.696;11.950;2023-03-04T13:25:29;1.17;;;0.60;;
13014;SDS011;6573;57.696;11.950;2023-03-04T13:28:15;6.70;;;0.80;;
13014;SDS011;6573;57.696;11.950;2023-03-04T13:33:46;2.70;;;0.80;;
13014;SDS011;6573;57.696;11.950;2023-03-04T13:36:36;7.43;;;1.10;;
13014;SDS011;6573;57.696;11.950;2023-03-04T13:39:28;4.43;;;1.10;;
13014;SDS011;6573;57.696;11.950;2023-03-04T13:45:33;9.47;;;1.07;;
13014;SDS011;6573;57.696;11.950;2023-03-04T13:48:03;5.37;;;1.00;;
13014;SDS011;6573;57.696;11.950;2023-03-04T13:50:50;2.50;;;0.90;;
13014;SDS011;6573;57.696;11.950;2023-03-04T14:02:09;6.30;;;1.23;;
13014;SDS011;6573;57.696;11.950;2023-03-04T14:04:45;2.80;;;1.10;;
13014;SDS011;6573;57.696;11.950;2023-03-04T14:07:19;7.63;;;1.17;;
13014;SDS011;6573;57.696;11.950;2023-03-04T14:09:53;3.77;;;0.70;;
13014;SDS011;6573;57.696;11.950;2023-03-04T14:12:23;5.37;;;1.20;;
13014;SDS011;6573;57.696;11.950;2023-03-04T14:14:57;2.67;;;0.83;;
13014;SDS011;6573;57.696;11.950;2023-03-04T14:17:30;3.70;;;0.80;;
13014;SDS011;6573;57.696;11.950;2023-03-04T14:20:02;6.10;;;1.20;;
13014;SDS011;6573;57.696;11.950;2023-03-04T14:22:33;5.90;;;1.00;;
13014;SDS011;6573;57.696;11.950;2023-03-04T14:25:14;14.00;;;1.90;;
13014;SDS011;6573;57.696;11.950;2023-03-04T14:27:49;6.23;;;1.00;;
13014;SDS011;6573;57.696;11.950;2023-03-04T14:30:28;4.33;;;1.00;;
13014;SDS011;6573;57.696;11.950;2023-03-04T14:33:13;3.80;;;0.90;;
13014;SDS011;6573;57.696;11.950;2023-03-04T14:35:45;2.97;;;1.10;;
13014;SDS011;6573;57.696;11.950;2023-03-04T14:38:17;6.20;;;1.10;;
13014;SDS011;6573;57.696;11.950;2023-03-04T14:40:51;1.93;;;0.90;;
13014;SDS011;6573;57.696;11.950;2023-03-04T14:43:24;3.57;;;1.17;;
13014;SDS011;6573;57.696;11.950;2023-03-04T14:45:56;2.30;;;0.97;;
13014;SDS011;6573;57.696;11.950;2023-03-04T14:48:29;14.23;;;2.40;;
13014;SDS011;6573;57.696;11.950;2023-03-04T14:51:00;3.97;;;0.80;;
13014;SDS011;6573;57.696;11.950;2023-03-04T14:53:29;4.13;;;1.10;;
13014;SDS011;6573;57.696;11.950;2023-03-04T14:55:59;5.97;;;1.10;;
13014;SDS011;6573;57.696;11.950;2023-03-04T14:58:30;5.13;;;1.30;;
13014;SDS011;6573;57.696;11.950;2023-03-04T15:01:04;14.60;;;2.23;;
13014;SDS011;6573;57.696;11.950;2023-03-04T15:03:37;2.77;;;0.80;;
13014;SDS011;6573;57.696;11.950;2023-03-04T15:06:16;2.17;;;0.87;;
13014;SDS011;6573;57.696;11.950;2023-03-04T15:08:53;5.13;;;1.10;;
13014;SDS011;6573;57.696;11.950;2023-03-04T15:11:24;2.73;;;1.00;;
13014;SDS011;6573;57.696;11.950;2023-03-04T15:13:56;6.20;;;1.30;;
13014;SDS011;6573;57.696;11.950;2023-03-04T15:16:27;3.73;;;0.70;;
13014;SDS011;6573;57.696;11.950;2023-03-04T15:19:26;5.27;;;1.07;;
13014;SDS011;6573;57.696;11.950;2023-03-04T15:22:03;4.13;;;1.40;;
13014;SDS011;6573;57.696;11.950;2023-03-04T15:24:32;5.97;;;2.20;;
13014;SDS011;6573;57.696;11.950;2023-03-04T15:27:00;3.13;;;0.90;;
13014;SDS011;6573;57.696;11.950;2023-03-04T15:29:33;6.00;;;1.23;;
13014;SDS011;6573;57.696;11.950;2023-03-04T15:32:02;4.37;;;1.03;;
13014;SDS011;6573;57.696;11.950;2023-03-04T15:34:32;4.07;;;0.60;;
13014;SDS011;6573;57.696;11.950;2023-03-04T15:37:00;7.20;;;1.00;;
13014;SDS011;6573;57.696;11.950;2023-03-04T15:39:29;5.00;;;0.80;;